GOPTI EGBO-EGNL
Flight info
| Callsign | GOPTI |
|---|---|
| Flight time | 1h 8m |
| Altitude | 3000 |
| Route | VFR |
| Aircraft | P28A/L-SBDGRY/; |
Departure
| Time | 2026-05-04 18:58 |
|---|---|
| Airport | Wolverhampton Halfpenny Green Airport (EGBO) |
Arrival
| Time | 2026-05-04 20:06 |
|---|---|
| Airport | Barrow Walney Island Airport (EGNL) |
| Time | Latitude | Longitude | Altitude | Speed | Heading |
|---|---|---|---|---|---|
| 2026-05-04 18:49 | 52.51547 | -2.26461 | 266 ft | 0 kts | 185° |
| 2026-05-04 18:54 | 52.51544 | -2.26462 | 266 ft | 1 kts | 205° |
| 2026-05-04 18:54 | 52.51534 | -2.26479 | 266 ft | 6 kts | 250° |
| 2026-05-04 18:55 | 52.51541 | -2.26639 | 264 ft | 18 kts | 274° |
| 2026-05-04 18:55 | 52.51700 | -2.26578 | 264 ft | 19 kts | 45° |
| 2026-05-04 18:55 | 52.51695 | -2.26374 | 266 ft | 20 kts | 96° |
| 2026-05-04 18:56 | 52.51678 | -2.26169 | 270 ft | 16 kts | 95° |
| 2026-05-04 18:56 | 52.51670 | -2.26019 | 275 ft | 12 kts | 95° |
| 2026-05-04 18:56 | 52.51667 | -2.25918 | 276 ft | 5 kts | 33° |
| 2026-05-04 18:56 | 52.51719 | -2.25940 | 277 ft | 19 kts | 336° |
| 2026-05-04 18:57 | 52.52002 | -2.26149 | 287 ft | 66 kts | 336° |
| 2026-05-04 18:57 | 52.52417 | -2.26478 | 472 ft | 68 kts | 334° |
| 2026-05-04 18:57 | 52.52847 | -2.26842 | 654 ft | 69 kts | 333° |
| 2026-05-04 18:57 | 52.53258 | -2.27235 | 845 ft | 69 kts | 332° |
| 2026-05-04 18:58 | 52.53694 | -2.27484 | 1093 ft | 65 kts | 354° |
| 2026-05-04 18:58 | 52.54155 | -2.27434 | 1346 ft | 69 kts | 8° |
| 2026-05-04 18:58 | 52.54612 | -2.27356 | 1602 ft | 66 kts | 13° |
| 2026-05-04 18:58 | 52.54985 | -2.26905 | 1793 ft | 69 kts | 40° |
| 2026-05-04 18:59 | 52.55315 | -2.26347 | 2024 ft | 67 kts | 36° |
| 2026-05-04 18:59 | 52.55656 | -2.25772 | 2209 ft | 72 kts | 43° |
| 2026-05-04 18:59 | 52.56000 | -2.25198 | 2432 ft | 71 kts | 38° |
| 2026-05-04 18:59 | 52.56366 | -2.24556 | 2592 ft | 80 kts | 45° |
| 2026-05-04 19:00 | 52.56740 | -2.23839 | 2787 ft | 84 kts | 46° |
| 2026-05-04 19:00 | 52.57094 | -2.23137 | 2870 ft | 81 kts | 46° |
| 2026-05-04 19:00 | 52.57466 | -2.22437 | 2903 ft | 82 kts | 44° |
| 2026-05-04 19:00 | 52.57836 | -2.21698 | 2943 ft | 85 kts | 50° |
| 2026-05-04 19:01 | 52.58166 | -2.20812 | 3041 ft | 96 kts | 57° |
| 2026-05-04 19:01 | 52.58530 | -2.19807 | 3090 ft | 106 kts | 56° |
| 2026-05-04 19:01 | 52.58923 | -2.18736 | 3129 ft | 112 kts | 56° |
| 2026-05-04 19:01 | 52.59326 | -2.17628 | 3160 ft | 115 kts | 57° |
| 2026-05-04 19:02 | 52.59728 | -2.16463 | 3153 ft | 119 kts | 58° |
| 2026-05-04 19:02 | 52.60119 | -2.15254 | 3142 ft | 120 kts | 59° |
| 2026-05-04 19:02 | 52.60496 | -2.14053 | 3167 ft | 119 kts | 60° |
| 2026-05-04 19:02 | 52.60876 | -2.12832 | 3174 ft | 120 kts | 61° |
| 2026-05-04 19:03 | 52.61249 | -2.11596 | 3164 ft | 121 kts | 60° |
| 2026-05-04 19:03 | 52.61630 | -2.10362 | 3175 ft | 121 kts | 60° |
| 2026-05-04 19:03 | 52.62055 | -2.09204 | 3217 ft | 116 kts | 48° |
| 2026-05-04 19:03 | 52.62583 | -2.08176 | 3207 ft | 119 kts | 47° |
| 2026-05-04 19:04 | 52.63128 | -2.07159 | 3237 ft | 118 kts | 45° |
| 2026-05-04 19:04 | 52.63696 | -2.06192 | 3261 ft | 119 kts | 42° |
| 2026-05-04 19:04 | 52.64368 | -2.05498 | 3301 ft | 115 kts | 10° |
| 2026-05-04 19:04 | 52.65145 | -2.05663 | 3247 ft | 108 kts | 341° |
| 2026-05-04 19:05 | 52.65798 | -2.06062 | 3092 ft | 95 kts | 341° |
| 2026-05-04 19:05 | 52.66403 | -2.06402 | 2960 ft | 89 kts | 343° |
| 2026-05-04 19:05 | 52.67000 | -2.06671 | 2810 ft | 89 kts | 347° |
| 2026-05-04 19:05 | 52.67592 | -2.06942 | 2640 ft | 89 kts | 344° |
| 2026-05-04 19:06 | 52.68170 | -2.07295 | 2495 ft | 88 kts | 338° |
| 2026-05-04 19:06 | 52.68751 | -2.07603 | 2364 ft | 88 kts | 345° |
| 2026-05-04 19:06 | 52.69340 | -2.07637 | 2266 ft | 87 kts | 4° |
| 2026-05-04 19:06 | 52.70002 | -2.07581 | 2282 ft | 103 kts | 2° |
| 2026-05-04 19:07 | 52.70739 | -2.07577 | 2341 ft | 108 kts | 0° |
| 2026-05-04 19:07 | 52.71493 | -2.07579 | 2396 ft | 113 kts | 0° |
| 2026-05-04 19:07 | 52.72286 | -2.07626 | 2424 ft | 115 kts | 354° |
| 2026-05-04 19:07 | 52.73079 | -2.07923 | 2403 ft | 119 kts | 344° |
| 2026-05-04 19:08 | 52.73873 | -2.08324 | 2396 ft | 120 kts | 343° |
| 2026-05-04 19:08 | 52.74678 | -2.08741 | 2354 ft | 121 kts | 343° |
| 2026-05-04 19:08 | 52.75474 | -2.09145 | 2372 ft | 119 kts | 343° |
| 2026-05-04 19:08 | 52.76263 | -2.09534 | 2436 ft | 114 kts | 342° |
| 2026-05-04 19:09 | 52.77056 | -2.09897 | 2365 ft | 120 kts | 346° |
| 2026-05-04 19:09 | 52.77858 | -2.10240 | 2342 ft | 119 kts | 341° |
| 2026-05-04 19:09 | 52.78611 | -2.10769 | 2326 ft | 119 kts | 336° |
| 2026-05-04 19:09 | 52.79347 | -2.11393 | 2319 ft | 119 kts | 333° |
| 2026-05-04 19:10 | 52.80064 | -2.12067 | 2304 ft | 120 kts | 332° |
| 2026-05-04 19:10 | 52.80752 | -2.12633 | 2204 ft | 100 kts | 335° |
| 2026-05-04 19:10 | 52.81345 | -2.13143 | 2046 ft | 95 kts | 334° |
| 2026-05-04 19:10 | 52.81939 | -2.13640 | 2038 ft | 99 kts | 335° |
| 2026-05-04 19:11 | 52.82588 | -2.14172 | 2057 ft | 108 kts | 335° |
| 2026-05-04 19:11 | 52.83292 | -2.14679 | 2065 ft | 113 kts | 338° |
| 2026-05-04 19:11 | 52.84040 | -2.15115 | 2067 ft | 115 kts | 345° |
| 2026-05-04 19:11 | 52.84804 | -2.15406 | 2127 ft | 113 kts | 348° |
| 2026-05-04 19:12 | 52.85575 | -2.15670 | 2160 ft | 114 kts | 349° |
| 2026-05-04 19:12 | 52.87164 | -2.16230 | 2143 ft | 119 kts | 345° |
| 2026-05-04 19:12 | 52.87952 | -2.16652 | 2140 ft | 119 kts | 339° |
| 2026-05-04 19:13 | 52.88690 | -2.17255 | 2128 ft | 119 kts | 333° |
| 2026-05-04 19:13 | 52.89436 | -2.17891 | 2080 ft | 122 kts | 334° |
| 2026-05-04 19:13 | 52.90211 | -2.18529 | 1941 ft | 126 kts | 334° |
| 2026-05-04 19:13 | 52.90976 | -2.19194 | 1887 ft | 124 kts | 332° |
| 2026-05-04 19:14 | 52.91737 | -2.19849 | 1841 ft | 123 kts | 334° |
| 2026-05-04 19:14 | 52.92521 | -2.20400 | 1836 ft | 120 kts | 341° |
| 2026-05-04 19:14 | 52.93313 | -2.20808 | 1862 ft | 119 kts | 346° |
| 2026-05-04 19:14 | 52.94112 | -2.20670 | 1913 ft | 116 kts | 12° |
| 2026-05-04 19:15 | 52.94912 | -2.20806 | 1905 ft | 117 kts | 347° |
| 2026-05-04 19:15 | 52.95709 | -2.21119 | 1900 ft | 118 kts | 346° |
| 2026-05-04 19:15 | 52.96497 | -2.21520 | 1920 ft | 119 kts | 341° |
| 2026-05-04 19:15 | 52.97252 | -2.22063 | 1936 ft | 118 kts | 332° |
| 2026-05-04 19:16 | 52.97896 | -2.22878 | 1938 ft | 118 kts | 317° |
| 2026-05-04 19:16 | 52.98449 | -2.23887 | 1930 ft | 119 kts | 314° |
| 2026-05-04 19:16 | 52.98999 | -2.24908 | 1936 ft | 117 kts | 313° |
| 2026-05-04 19:16 | 52.99674 | -2.25552 | 1922 ft | 117 kts | 357° |
| 2026-05-04 19:17 | 53.00394 | -2.24873 | 1874 ft | 124 kts | 36° |
| 2026-05-04 19:17 | 53.01152 | -2.24498 | 1921 ft | 116 kts | 345° |
| 2026-05-04 19:17 | 53.01844 | -2.25179 | 1915 ft | 117 kts | 324° |
| 2026-05-04 19:17 | 53.02491 | -2.26005 | 1941 ft | 117 kts | 324° |
| 2026-05-04 19:18 | 53.03165 | -2.26801 | 1926 ft | 120 kts | 328° |
| 2026-05-04 19:18 | 53.03855 | -2.27571 | 1949 ft | 120 kts | 322° |
| 2026-05-04 19:18 | 53.04453 | -2.28540 | 1921 ft | 122 kts | 319° |
| 2026-05-04 19:18 | 53.05061 | -2.29554 | 1851 ft | 125 kts | 316° |
| 2026-05-04 19:19 | 53.05661 | -2.30603 | 1831 ft | 123 kts | 315° |
| 2026-05-04 19:19 | 53.06140 | -2.31770 | 1838 ft | 122 kts | 305° |
| 2026-05-04 19:19 | 53.06600 | -2.32955 | 1828 ft | 122 kts | 305° |
| 2026-05-04 19:19 | 53.07025 | -2.34159 | 1823 ft | 121 kts | 301° |
| 2026-05-04 19:20 | 53.07403 | -2.35425 | 1753 ft | 123 kts | 298° |
| 2026-05-04 19:20 | 53.07774 | -2.36674 | 1719 ft | 123 kts | 300° |
| 2026-05-04 19:20 | 53.08127 | -2.37939 | 1706 ft | 122 kts | 294° |
| 2026-05-04 19:20 | 53.08419 | -2.39270 | 1661 ft | 121 kts | 293° |
| 2026-05-04 19:21 | 53.08707 | -2.40576 | 1630 ft | 121 kts | 294° |
| 2026-05-04 19:21 | 53.09103 | -2.41774 | 1638 ft | 117 kts | 311° |
| 2026-05-04 19:21 | 53.09671 | -2.42737 | 1653 ft | 114 kts | 324° |
| 2026-05-04 19:21 | 53.10345 | -2.43404 | 1731 ft | 111 kts | 330° |
| 2026-05-04 19:22 | 53.11015 | -2.44050 | 1757 ft | 111 kts | 329° |
| 2026-05-04 19:22 | 53.11596 | -2.44660 | 1693 ft | 89 kts | 328° |
| 2026-05-04 19:22 | 53.12094 | -2.45189 | 1553 ft | 86 kts | 328° |
| 2026-05-04 19:22 | 53.12618 | -2.45743 | 1450 ft | 91 kts | 328° |
| 2026-05-04 19:23 | 53.13160 | -2.46314 | 1380 ft | 94 kts | 328° |
| 2026-05-04 19:23 | 53.13695 | -2.46856 | 1269 ft | 85 kts | 329° |
| 2026-05-04 19:23 | 53.14202 | -2.47340 | 1099 ft | 85 kts | 329° |
| 2026-05-04 19:23 | 53.14777 | -2.47898 | 1089 ft | 104 kts | 329° |
| 2026-05-04 19:24 | 53.15415 | -2.48552 | 1124 ft | 111 kts | 328° |
| 2026-05-04 19:24 | 53.16094 | -2.49220 | 1121 ft | 116 kts | 330° |
| 2026-05-04 19:24 | 53.16791 | -2.49919 | 1123 ft | 117 kts | 329° |
| 2026-05-04 19:24 | 53.17476 | -2.50596 | 1164 ft | 116 kts | 330° |
| 2026-05-04 19:25 | 53.18225 | -2.51022 | 1204 ft | 113 kts | 344° |
| 2026-05-04 19:25 | 53.18943 | -2.51310 | 1131 ft | 102 kts | 346° |
| 2026-05-04 19:25 | 53.19645 | -2.51567 | 1071 ft | 104 kts | 346° |
| 2026-05-04 19:25 | 53.20364 | -2.51895 | 1170 ft | 107 kts | 342° |
| 2026-05-04 19:26 | 53.21075 | -2.52319 | 1217 ft | 111 kts | 336° |
| 2026-05-04 19:26 | 53.21776 | -2.52894 | 1252 ft | 114 kts | 333° |
| 2026-05-04 19:26 | 53.22533 | -2.53348 | 1203 ft | 117 kts | 346° |
| 2026-05-04 19:26 | 53.23294 | -2.53691 | 1286 ft | 113 kts | 341° |
| 2026-05-04 19:27 | 53.24056 | -2.54087 | 1234 ft | 116 kts | 341° |
| 2026-05-04 19:27 | 53.24819 | -2.54419 | 1276 ft | 113 kts | 345° |
| 2026-05-04 19:27 | 53.25592 | -2.54678 | 1290 ft | 115 kts | 348° |
| 2026-05-04 19:27 | 53.26393 | -2.54909 | 1284 ft | 117 kts | 348° |
| 2026-05-04 19:28 | 53.27184 | -2.55179 | 1308 ft | 115 kts | 346° |
| 2026-05-04 19:28 | 53.27969 | -2.55474 | 1298 ft | 117 kts | 345° |
| 2026-05-04 19:28 | 53.28758 | -2.55789 | 1309 ft | 117 kts | 347° |
| 2026-05-04 19:28 | 53.29548 | -2.56065 | 1309 ft | 118 kts | 347° |
| 2026-05-04 19:29 | 53.30341 | -2.56355 | 1323 ft | 116 kts | 345° |
| 2026-05-04 19:29 | 53.31112 | -2.56656 | 1314 ft | 114 kts | 347° |
| 2026-05-04 19:29 | 53.31890 | -2.56851 | 1293 ft | 112 kts | 352° |
| 2026-05-04 19:29 | 53.32645 | -2.57068 | 1328 ft | 108 kts | 347° |
| 2026-05-04 19:30 | 53.33364 | -2.57395 | 1359 ft | 108 kts | 343° |
| 2026-05-04 19:30 | 53.34096 | -2.57767 | 1357 ft | 111 kts | 343° |
| 2026-05-04 19:30 | 53.34839 | -2.58110 | 1362 ft | 112 kts | 344° |
| 2026-05-04 19:30 | 53.35600 | -2.58442 | 1345 ft | 114 kts | 346° |
| 2026-05-04 19:31 | 53.36360 | -2.58754 | 1430 ft | 110 kts | 345° |
| 2026-05-04 19:31 | 53.37088 | -2.59059 | 1429 ft | 110 kts | 347° |
| 2026-05-04 19:31 | 53.37826 | -2.59234 | 1256 ft | 106 kts | 351° |
| 2026-05-04 19:31 | 53.38576 | -2.59393 | 1215 ft | 111 kts | 351° |
| 2026-05-04 19:32 | 53.39341 | -2.59574 | 1241 ft | 111 kts | 350° |
| 2026-05-04 19:32 | 53.40115 | -2.59738 | 1278 ft | 111 kts | 353° |
| 2026-05-04 19:32 | 53.40893 | -2.59838 | 1266 ft | 112 kts | 353° |
| 2026-05-04 19:32 | 53.41671 | -2.59959 | 1284 ft | 110 kts | 352° |
| 2026-05-04 19:33 | 53.42438 | -2.60121 | 1299 ft | 110 kts | 351° |
| 2026-05-04 19:33 | 53.43197 | -2.60144 | 1350 ft | 111 kts | 357° |
| 2026-05-04 19:33 | 53.43967 | -2.60150 | 1406 ft | 111 kts | 357° |
| 2026-05-04 19:33 | 53.44747 | -2.60172 | 1378 ft | 114 kts | 356° |
| 2026-05-04 19:34 | 53.45562 | -2.60194 | 1290 ft | 119 kts | 358° |
| 2026-05-04 19:34 | 53.46392 | -2.60192 | 1249 ft | 120 kts | 359° |
| 2026-05-04 19:34 | 53.47232 | -2.60124 | 1169 ft | 118 kts | 1° |
| 2026-05-04 19:34 | 53.48036 | -2.60081 | 1167 ft | 114 kts | 356° |
| 2026-05-04 19:35 | 53.48823 | -2.60171 | 1223 ft | 111 kts | 351° |
| 2026-05-04 19:35 | 53.49579 | -2.60445 | 1258 ft | 113 kts | 345° |
| 2026-05-04 19:35 | 53.50341 | -2.60838 | 1279 ft | 115 kts | 342° |
| 2026-05-04 19:35 | 53.51089 | -2.61266 | 1305 ft | 115 kts | 341° |
| 2026-05-04 19:36 | 53.51788 | -2.61855 | 1387 ft | 112 kts | 320° |
| 2026-05-04 19:36 | 53.52195 | -2.62977 | 1475 ft | 112 kts | 300° |
| 2026-05-04 19:36 | 53.52508 | -2.64110 | 1666 ft | 107 kts | 299° |
| 2026-05-04 19:36 | 53.52806 | -2.65155 | 1913 ft | 98 kts | 301° |
| 2026-05-04 19:37 | 53.53123 | -2.66208 | 2028 ft | 101 kts | 301° |
| 2026-05-04 19:37 | 53.53400 | -2.67309 | 2107 ft | 106 kts | 296° |
| 2026-05-04 19:37 | 53.53677 | -2.68446 | 2207 ft | 104 kts | 296° |
| 2026-05-04 19:37 | 53.53945 | -2.69567 | 2342 ft | 103 kts | 297° |
| 2026-05-04 19:38 | 53.54248 | -2.70682 | 2402 ft | 106 kts | 300° |
| 2026-05-04 19:38 | 53.54581 | -2.71779 | 2462 ft | 108 kts | 300° |
| 2026-05-04 19:38 | 53.54926 | -2.72925 | 2470 ft | 111 kts | 301° |
| 2026-05-04 19:38 | 53.55293 | -2.74071 | 2493 ft | 111 kts | 301° |
| 2026-05-04 19:39 | 53.55652 | -2.75234 | 2540 ft | 112 kts | 301° |
| 2026-05-04 19:39 | 53.56031 | -2.76407 | 2540 ft | 116 kts | 301° |
| 2026-05-04 19:39 | 53.56419 | -2.77556 | 2639 ft | 112 kts | 303° |
| 2026-05-04 19:39 | 53.56800 | -2.78644 | 2814 ft | 104 kts | 304° |
| 2026-05-04 19:40 | 53.57158 | -2.79612 | 3020 ft | 93 kts | 304° |
| 2026-05-04 19:40 | 53.57490 | -2.80481 | 3209 ft | 88 kts | 304° |
| 2026-05-04 19:40 | 53.57814 | -2.81351 | 3347 ft | 89 kts | 304° |
| 2026-05-04 19:40 | 53.58168 | -2.82225 | 3498 ft | 89 kts | 307° |
| 2026-05-04 19:41 | 53.58544 | -2.83049 | 3640 ft | 93 kts | 308° |
| 2026-05-04 19:41 | 53.58951 | -2.83897 | 3774 ft | 94 kts | 308° |
| 2026-05-04 19:41 | 53.59363 | -2.84814 | 3814 ft | 104 kts | 306° |
| 2026-05-04 19:41 | 53.59774 | -2.85796 | 3906 ft | 106 kts | 306° |
| 2026-05-04 19:42 | 53.60244 | -2.86810 | 3912 ft | 110 kts | 308° |
| 2026-05-04 19:42 | 53.60686 | -2.87876 | 3931 ft | 112 kts | 302° |
| 2026-05-04 19:42 | 53.61101 | -2.89001 | 3872 ft | 117 kts | 302° |
| 2026-05-04 19:42 | 53.61523 | -2.90172 | 3843 ft | 117 kts | 302° |
| 2026-05-04 19:43 | 53.61952 | -2.91334 | 3805 ft | 117 kts | 302° |
| 2026-05-04 19:43 | 53.62407 | -2.92469 | 3746 ft | 117 kts | 306° |
| 2026-05-04 19:43 | 53.62911 | -2.93543 | 3747 ft | 114 kts | 309° |
| 2026-05-04 19:43 | 53.63401 | -2.94612 | 3691 ft | 118 kts | 307° |
| 2026-05-04 19:44 | 53.63892 | -2.95756 | 3581 ft | 124 kts | 306° |
| 2026-05-04 19:44 | 53.64403 | -2.96944 | 3499 ft | 121 kts | 307° |
| 2026-05-04 19:44 | 53.64898 | -2.98031 | 3506 ft | 116 kts | 309° |
| 2026-05-04 19:44 | 53.65446 | -2.99016 | 3479 ft | 117 kts | 327° |
| 2026-05-04 19:45 | 53.66234 | -2.99318 | 3454 ft | 120 kts | 350° |
| 2026-05-04 19:45 | 53.67072 | -2.99436 | 3386 ft | 120 kts | 354° |
| 2026-05-04 19:45 | 53.67898 | -2.99596 | 3354 ft | 119 kts | 347° |
| 2026-05-04 19:45 | 53.68704 | -2.99860 | 3386 ft | 117 kts | 345° |
| 2026-05-04 19:46 | 53.69531 | -3.00161 | 3207 ft | 124 kts | 346° |
| 2026-05-04 19:46 | 53.70365 | -3.00399 | 3188 ft | 118 kts | 347° |
| 2026-05-04 19:46 | 53.71184 | -3.00606 | 3117 ft | 121 kts | 349° |
| 2026-05-04 19:46 | 53.72019 | -3.00760 | 3082 ft | 120 kts | 350° |
| 2026-05-04 19:47 | 53.72853 | -3.00812 | 2985 ft | 124 kts | 357° |
| 2026-05-04 19:47 | 53.73688 | -3.01003 | 2991 ft | 119 kts | 345° |
| 2026-05-04 19:47 | 53.74477 | -3.01320 | 3010 ft | 116 kts | 343° |
| 2026-05-04 19:47 | 53.75258 | -3.01679 | 2997 ft | 115 kts | 340° |
| 2026-05-04 19:48 | 53.76011 | -3.02077 | 3016 ft | 113 kts | 342° |
| 2026-05-04 19:48 | 53.76671 | -3.02675 | 3077 ft | 107 kts | 309° |
| 2026-05-04 19:48 | 53.77074 | -3.03767 | 3054 ft | 112 kts | 301° |
| 2026-05-04 19:48 | 53.77465 | -3.04855 | 3138 ft | 107 kts | 304° |
| 2026-05-04 19:49 | 53.77889 | -3.05921 | 3107 ft | 112 kts | 303° |
| 2026-05-04 19:49 | 53.78506 | -3.06600 | 3076 ft | 117 kts | 350° |
| 2026-05-04 19:49 | 53.79355 | -3.06516 | 2946 ft | 125 kts | 2° |
| 2026-05-04 19:49 | 53.80182 | -3.06331 | 3041 ft | 115 kts | 3° |
| 2026-05-04 19:50 | 53.80982 | -3.06264 | 3073 ft | 113 kts | 355° |
| 2026-05-04 19:50 | 53.81772 | -3.06307 | 3094 ft | 115 kts | 355° |
| 2026-05-04 19:50 | 53.82584 | -3.06407 | 3053 ft | 119 kts | 352° |
| 2026-05-04 19:50 | 53.83391 | -3.06318 | 3126 ft | 115 kts | 2° |
| 2026-05-04 19:51 | 53.84163 | -3.06102 | 3226 ft | 112 kts | 11° |
| 2026-05-04 19:51 | 53.84873 | -3.05727 | 3447 ft | 104 kts | 13° |
| 2026-05-04 19:51 | 53.85570 | -3.05403 | 3582 ft | 104 kts | 8° |
| 2026-05-04 19:51 | 53.86316 | -3.05120 | 3605 ft | 111 kts | 6° |
| 2026-05-04 19:52 | 53.87037 | -3.04892 | 3816 ft | 103 kts | 8° |
| 2026-05-04 19:52 | 53.87726 | -3.04645 | 4034 ft | 99 kts | 7° |
| 2026-05-04 19:52 | 53.88415 | -3.04438 | 4167 ft | 102 kts | 2° |
| 2026-05-04 19:52 | 53.89130 | -3.04353 | 4307 ft | 100 kts | 354° |
| 2026-05-04 19:53 | 53.89757 | -3.04755 | 4376 ft | 102 kts | 326° |
| 2026-05-04 19:53 | 53.90394 | -3.05388 | 4390 ft | 109 kts | 325° |
| 2026-05-04 19:53 | 53.91031 | -3.06113 | 4437 ft | 110 kts | 321° |
| 2026-05-04 19:53 | 53.91698 | -3.06792 | 4454 ft | 114 kts | 326° |
| 2026-05-04 19:54 | 53.92382 | -3.07478 | 4485 ft | 113 kts | 323° |
| 2026-05-04 19:54 | 53.92970 | -3.08344 | 4528 ft | 112 kts | 311° |
| 2026-05-04 19:54 | 53.93483 | -3.09322 | 4554 ft | 112 kts | 308° |
| 2026-05-04 19:54 | 53.93977 | -3.10347 | 4478 ft | 117 kts | 303° |
| 2026-05-04 19:55 | 53.94397 | -3.11461 | 4351 ft | 108 kts | 301° |
| 2026-05-04 19:55 | 53.94827 | -3.12493 | 4216 ft | 106 kts | 309° |
| 2026-05-04 19:55 | 53.95336 | -3.13366 | 4095 ft | 103 kts | 311° |
| 2026-05-04 19:55 | 53.95818 | -3.14264 | 3975 ft | 102 kts | 306° |
| 2026-05-04 19:56 | 53.96281 | -3.15185 | 3836 ft | 103 kts | 309° |
| 2026-05-04 19:56 | 53.96772 | -3.15939 | 3840 ft | 94 kts | 317° |
| 2026-05-04 19:56 | 53.97318 | -3.16620 | 3716 ft | 98 kts | 320° |
| 2026-05-04 19:56 | 53.97890 | -3.17277 | 3553 ft | 100 kts | 322° |
| 2026-05-04 19:57 | 53.98473 | -3.17860 | 3461 ft | 99 kts | 327° |
| 2026-05-04 19:57 | 53.99074 | -3.18443 | 3320 ft | 99 kts | 326° |
| 2026-05-04 19:57 | 53.99677 | -3.18988 | 3198 ft | 99 kts | 329° |
| 2026-05-04 19:57 | 54.00320 | -3.19445 | 3024 ft | 100 kts | 331° |
| 2026-05-04 19:58 | 54.00912 | -3.19954 | 2852 ft | 96 kts | 329° |
| 2026-05-04 19:58 | 54.01552 | -3.20411 | 2669 ft | 99 kts | 334° |
| 2026-05-04 19:58 | 54.02166 | -3.20910 | 2543 ft | 97 kts | 331° |
| 2026-05-04 19:58 | 54.02756 | -3.21413 | 2459 ft | 94 kts | 332° |
| 2026-05-04 19:59 | 54.03337 | -3.21911 | 2331 ft | 95 kts | 330° |
| 2026-05-04 19:59 | 54.03966 | -3.22420 | 2227 ft | 107 kts | 333° |
| 2026-05-04 19:59 | 54.04651 | -3.22943 | 2226 ft | 108 kts | 335° |
| 2026-05-04 19:59 | 54.05393 | -3.23201 | 2211 ft | 111 kts | 353° |
| 2026-05-04 20:00 | 54.06185 | -3.23141 | 2162 ft | 116 kts | 356° |
| 2026-05-04 20:00 | 54.06985 | -3.23101 | 2151 ft | 114 kts | 356° |
| 2026-05-04 20:00 | 54.07780 | -3.23027 | 2120 ft | 116 kts | 358° |
| 2026-05-04 20:00 | 54.08560 | -3.22892 | 1948 ft | 100 kts | 1° |
| 2026-05-04 20:01 | 54.09208 | -3.22735 | 1745 ft | 90 kts | 1° |
| 2026-05-04 20:01 | 54.09809 | -3.22618 | 1504 ft | 84 kts | 359° |
| 2026-05-04 20:01 | 54.10393 | -3.22536 | 1306 ft | 88 kts | 358° |
| 2026-05-04 20:01 | 54.10989 | -3.22319 | 1256 ft | 89 kts | 9° |
| 2026-05-04 20:02 | 54.11552 | -3.22061 | 1219 ft | 80 kts | 359° |
| 2026-05-04 20:02 | 54.12061 | -3.22135 | 1091 ft | 70 kts | 338° |
| 2026-05-04 20:02 | 54.12420 | -3.22621 | 912 ft | 66 kts | 305° |
| 2026-05-04 20:02 | 54.12589 | -3.23407 | 702 ft | 78 kts | 290° |
| 2026-05-04 20:03 | 54.12492 | -3.24297 | 600 ft | 74 kts | 273° |
| 2026-05-04 20:03 | 54.12632 | -3.25037 | 708 ft | 66 kts | 297° |
| 2026-05-04 20:03 | 54.12786 | -3.25785 | 815 ft | 67 kts | 293° |
| 2026-05-04 20:03 | 54.12884 | -3.26573 | 933 ft | 64 kts | 291° |
| 2026-05-04 20:04 | 54.12954 | -3.27401 | 985 ft | 80 kts | 286° |
| 2026-05-04 20:04 | 54.12747 | -3.28348 | 1002 ft | 107 kts | 227° |
| 2026-05-04 20:04 | 54.12052 | -3.28754 | 894 ft | 104 kts | 187° |
| 2026-05-04 20:04 | 54.11387 | -3.28434 | 795 ft | 99 kts | 158° |
| 2026-05-04 20:05 | 54.10782 | -3.27858 | 683 ft | 97 kts | 151° |
| 2026-05-04 20:05 | 54.10534 | -3.26888 | 530 ft | 93 kts | 60° |
| 2026-05-04 20:05 | 54.10894 | -3.26187 | 440 ft | 66 kts | 8° |
| 2026-05-04 20:05 | 54.11338 | -3.26124 | 331 ft | 65 kts | 344° |
| 2026-05-04 20:06 | 54.11781 | -3.26285 | 221 ft | 66 kts | 341° |
| 2026-05-04 20:06 | 54.12195 | -3.26457 | 118 ft | 60 kts | 340° |
| 2026-05-04 20:06 | 54.12588 | -3.26626 | 43 ft | 54 kts | 343° |
| 2026-05-04 20:06 | 54.12896 | -3.26753 | 38 ft | 36 kts | 346° |
| 2026-05-04 20:07 | 54.13079 | -3.26831 | 41 ft | 21 kts | 346° |
| 2026-05-04 20:07 | 54.13216 | -3.26888 | 43 ft | 16 kts | 2° |
| 2026-05-04 20:07 | 54.13203 | -3.26698 | 42 ft | 25 kts | 114° |
| 2026-05-04 20:07 | 54.13129 | -3.26368 | 38 ft | 35 kts | 110° |
| 2026-05-04 20:08 | 54.13033 | -3.25984 | 32 ft | 31 kts | 111° |
| 2026-05-04 20:08 | 54.12967 | -3.25724 | 30 ft | 13 kts | 146° |
| 2026-05-04 20:08 | 54.12882 | -3.25814 | 31 ft | 22 kts | 226° |
| 2026-05-04 20:08 | 54.12779 | -3.26018 | 33 ft | 24 kts | 228° |
| 2026-05-04 20:09 | 54.12676 | -3.26218 | 34 ft | 13 kts | 217° |
| 2026-05-04 20:09 | 54.12638 | -3.26137 | 33 ft | 14 kts | 117° |
| 2026-05-04 20:09 | 54.12580 | -3.26098 | 34 ft | 9 kts | 215° |
| 2026-05-04 20:09 | 54.12541 | -3.26160 | 34 ft | 8 kts | 212° |
| 2026-05-04 20:10 | 54.12488 | -3.26191 | 34 ft | 9 kts | 189° |
| 2026-05-04 20:10 | 54.12470 | -3.26225 | 34 ft | 5 kts | 292° |
| 2026-05-04 20:10 | 54.12462 | -3.26251 | 34 ft | 0 kts | 193° |